Time;durP1;ratioP1;P1;durP2;ratioP2;P2;SDS_P1;SDS_P2;PMS_P1;PMS_P2;Temp;Humidity;BMP_temperature;BMP_pressure;BME280_temperature;BME280_humidity;BME280_pressure;Samples;Min_cycle;Max_cycle;Signal;HPM_P1;HPM_P2
2023/03/06 00:03:06;;;;;;;16.23;5.27;;;;;;;;;;10504182;28;20338;-75
2023/03/06 00:08:11;;;;;;;20.95;6.30;;;;;;;;;;10490378;28;20496;-77
2023/03/06 00:13:17;;;;;;;16.40;5.67;;;;;;;;;;10500438;28;20079;-78
2023/03/06 00:18:21;;;;;;;15.53;6.07;;;;;;;;;;10497940;28;20040;-77
2023/03/06 00:23:26;;;;;;;17.70;6.43;;;;;;;;;;10512183;28;20058;-78
2023/03/06 00:28:30;;;;;;;20.07;5.73;;;;;;;;;;10503623;28;20048;-77
2023/03/06 00:33:43;;;;;;;17.70;5.97;;;;;;;;;;10487033;28;20067;-77
2023/03/06 00:38:47;;;;;;;20.13;5.67;;;;;;;;;;10501777;28;20123;-78
2023/03/06 00:43:50;;;;;;;11.13;3.95;;;;;;;;;;10505826;28;20040;-78
2023/03/06 00:48:53;;;;;;;14.40;5.53;;;;;;;;;;10521228;28;20090;-78
2023/03/06 00:53:57;;;;;;;18.93;5.73;;;;;;;;;;10513070;28;20040;-79
2023/03/06 00:59:09;;;;;;;18.13;5.70;;;;;;;;;;10516835;28;20044;-77
2023/03/06 01:04:12;;;;;;;15.07;4.87;;;;;;;;;;10512707;28;20048;-76
2023/03/06 01:09:17;;;;;;;18.40;6.00;;;;;;;;;;10518031;28;20051;-77
2023/03/06 01:14:20;;;;;;;17.20;6.33;;;;;;;;;;10516404;28;20316;-76
2023/03/06 01:19:23;;;;;;;17.07;5.63;;;;;;;;;;10511796;28;20143;-77
2023/03/06 01:24:37;;;;;;;19.73;6.67;;;;;;;;;;10510915;28;20097;-77
2023/03/06 01:29:39;;;;;;;19.55;6.20;;;;;;;;;;10516397;28;20063;-76
2023/03/06 01:34:42;;;;;;;17.23;6.13;;;;;;;;;;10515721;28;20139;-77
2023/03/06 01:39:46;;;;;;;20.07;6.27;;;;;;;;;;10506678;28;20037;-77
2023/03/06 01:44:59;;;;;;;18.77;6.43;;;;;;;;;;10510659;28;20259;-76
2023/03/06 01:50:03;;;;;;;20.93;7.00;;;;;;;;;;10508194;28;20457;-77
2023/03/06 01:55:10;;;;;;;20.13;6.70;;;;;;;;;;10496230;28;20047;-77
2023/03/06 02:00:15;;;;;;;22.10;6.83;;;;;;;;;;10516246;28;20398;-76
2023/03/06 02:05:18;;;;;;;23.30;6.67;;;;;;;;;;10504244;28;20099;-76
2023/03/06 02:10:24;;;;;;;19.52;6.00;;;;;;;;;;10504392;28;20040;-76
2023/03/06 02:15:28;;;;;;;17.00;5.90;;;;;;;;;;10516575;28;20033;-76
2023/03/06 02:20:39;;;;;;;23.07;6.93;;;;;;;;;;10500608;28;20155;-76
2023/03/06 02:25:46;;;;;;;18.40;6.30;;;;;;;;;;10508628;28;20041;-75
2023/03/06 02:30:50;;;;;;;21.80;6.27;;;;;;;;;;10494751;28;20037;-76
2023/03/06 02:35:54;;;;;;;25.90;6.93;;;;;;;;;;10512690;28;20127;-76
2023/03/06 02:41:01;;;;;;;19.27;6.80;;;;;;;;;;10505313;28;20465;-76
2023/03/06 02:46:04;;;;;;;24.27;5.97;;;;;;;;;;10499010;28;20136;-75
2023/03/06 02:51:06;;;;;;;22.30;7.53;;;;;;;;;;10499704;28;20044;-77
2023/03/06 02:56:10;;;;;;;24.57;7.50;;;;;;;;;;10514528;28;20048;-79
2023/03/06 03:01:14;;;;;;;21.77;7.13;;;;;;;;;;10517786;28;20040;-79
2023/03/06 03:06:17;;;;;;;22.40;6.67;;;;;;;;;;10516432;28;20036;-77
2023/03/06 03:11:24;;;;;;;20.40;6.07;;;;;;;;;;10503127;28;20128;-77
2023/03/06 03:16:28;;;;;;;22.47;6.70;;;;;;;;;;10488865;28;20056;-77
2023/03/06 03:21:30;;;;;;;25.73;7.07;;;;;;;;;;10515553;28;20453;-76
2023/03/06 03:26:34;;;;;;;20.57;6.70;;;;;;;;;;10500991;28;20417;-76
2023/03/06 03:31:37;;;;;;;18.85;6.95;;;;;;;;;;10522120;28;20036;-77
2023/03/06 03:36:39;;;;;;;16.67;6.03;;;;;;;;;;10522368;28;20060;-77
2023/03/06 03:41:44;;;;;;;20.50;6.33;;;;;;;;;;10518460;28;20042;-77
2023/03/06 03:46:47;;;;;;;19.13;6.20;;;;;;;;;;10514406;28;20039;-77
2023/03/06 03:51:50;;;;;;;22.37;6.70;;;;;;;;;;10516488;28;20093;-77
2023/03/06 03:56:55;;;;;;;21.77;6.97;;;;;;;;;;10500829;28;20086;-77
2023/03/06 04:01:58;;;;;;;19.70;6.47;;;;;;;;;;10516515;28;20297;-77
2023/03/06 04:07:03;;;;;;;19.95;6.75;;;;;;;;;;10497861;28;20484;-77
2023/03/06 04:12:17;;;;;;;24.83;7.37;;;;;;;;;;10510699;28;20036;-76
2023/03/06 04:17:19;;;;;;;24.08;7.60;;;;;;;;;;10512278;28;20052;-78
2023/03/06 04:22:23;;;;;;;21.08;7.00;;;;;;;;;;10522740;28;20072;-77
2023/03/06 04:27:27;;;;;;;21.93;7.10;;;;;;;;;;10514643;28;20044;-77
2023/03/06 04:32:30;;;;;;;;;;;;;;;;;;10522452;28;20377;-76
2023/03/06 04:37:32;;;;;;;16.00;5.63;;;;;;;;;;10515756;28;19920;-78
2023/03/06 04:42:37;;;;;;;23.83;6.47;;;;;;;;;;10523889;28;20132;-78
2023/03/06 04:47:39;;;;;;;17.10;5.80;;;;;;;;;;10519775;28;20044;-76
2023/03/06 04:52:43;;;;;;;22.47;5.87;;;;;;;;;;10516284;28;20444;-77
2023/03/06 04:57:47;;;;;;;20.40;6.47;;;;;;;;;;10499180;28;20075;-77
2023/03/06 05:02:50;;;;;;;20.38;6.88;;;;;;;;;;10494208;28;20505;-77
2023/03/06 05:07:53;;;;;;;19.52;5.60;;;;;;;;;;10499731;28;20223;-77
2023/03/06 05:13:07;;;;;;;21.47;6.40;;;;;;;;;;10505978;28;20096;-76
2023/03/06 05:18:10;;;;;;;14.43;5.57;;;;;;;;;;10497881;28;20048;-76
2023/03/06 05:23:13;;;;;;;21.10;6.73;;;;;;;;;;10505877;28;20123;-77
2023/03/06 05:28:18;;;;;;;24.47;6.23;;;;;;;;;;10499937;28;20032;-77
2023/03/06 05:33:21;;;;;;;10.93;4.30;;;;;;;;;;10500572;28;20037;-76
2023/03/06 05:38:24;;;;;;;20.67;6.07;;;;;;;;;;10483718;28;20047;-77
2023/03/06 05:43:28;;;;;;;17.43;6.33;;;;;;;;;;10514530;28;20037;-77
2023/03/06 05:48:33;;;;;;;13.90;5.17;;;;;;;;;;10510117;28;20093;-77
2023/03/06 05:53:35;;;;;;;17.73;6.10;;;;;;;;;;10508434;28;20038;-77
2023/03/06 05:58:40;;;;;;;21.70;7.13;;;;;;;;;;10523915;28;20039;-76
2023/03/06 06:03:43;;;;;;;19.98;7.35;;;;;;;;;;10498751;28;20097;-77
2023/03/06 06:08:46;;;;;;;21.50;6.73;;;;;;;;;;10500741;28;20036;-76
2023/03/06 06:13:50;;;;;;;23.97;6.43;;;;;;;;;;10500071;28;20029;-76
2023/03/06 06:18:52;;;;;;;19.13;6.13;;;;;;;;;;10487462;28;20059;-76
2023/03/06 06:23:55;;;;;;;23.77;7.03;;;;;;;;;;10497068;28;20043;-75
2023/03/06 06:29:00;;;;;;;17.08;6.28;;;;;;;;;;10490578;28;20383;-76
2023/03/06 06:34:04;;;;;;;10.47;2.63;;;;;;;;;;10510765;28;20508;-77
2023/03/06 06:39:09;;;;;;;25.05;7.20;;;;;;;;;;10506402;28;20040;-76
2023/03/06 06:44:15;;;;;;;19.97;6.10;;;;;;;;;;10499881;28;20135;-75
2023/03/06 06:49:17;;;;;;;10.23;3.45;;;;;;;;;;10500953;28;20374;-74
2023/03/06 06:54:21;;;;;;;18.57;6.47;;;;;;;;;;10495393;28;20136;-73
2023/03/06 06:59:25;;;;;;;18.40;6.00;;;;;;;;;;10504017;28;20071;-74
2023/03/06 07:04:29;;;;;;;16.70;5.50;;;;;;;;;;10515384;28;20450;-73
2023/03/06 07:09:31;;;;;;;22.23;6.73;;;;;;;;;;10510916;28;20042;-74
2023/03/06 07:14:36;;;;;;;9.13;3.23;;;;;;;;;;10510649;28;20540;-74
2023/03/06 07:19:39;;;;;;;17.98;4.78;;;;;;;;;;10511284;28;20455;-75
2023/03/06 07:24:41;;;;;;;28.83;4.38;;;;;;;;;;10508448;28;20055;-75
2023/03/06 07:29:47;;;;;;;15.52;3.85;;;;;;;;;;10507663;28;20101;-74
2023/03/06 07:34:49;;;;;;;20.08;6.45;;;;;;;;;;10514925;28;20045;-75
2023/03/06 07:39:55;;;;;;;21.80;6.28;;;;;;;;;;10508578;28;20052;-73
2023/03/06 07:45:11;;;;;;;21.30;6.25;;;;;;;;;;10511278;28;20036;-75
2023/03/06 07:50:15;;;;;;;18.65;4.65;;;;;;;;;;10519983;28;20032;-75
2023/03/06 07:55:23;;;;;;;19.85;5.85;;;;;;;;;;10513029;28;20143;-75
2023/03/06 08:00:27;;;;;;;11.38;3.58;;;;;;;;;;10520752;28;20028;-74
2023/03/06 08:05:38;;;;;;;18.13;5.28;;;;;;;;;;10511198;28;20041;-76
2023/03/06 08:10:47;;;;;;;22.30;7.47;;;;;;;;;;10518704;28;20127;-75
2023/03/06 08:15:51;;;;;;;15.38;3.35;;;;;;;;;;10518046;28;20036;-75
2023/03/06 08:21:01;;;;;;;9.13;4.25;;;;;;;;;;10509764;28;20060;-75
2023/03/06 08:26:05;;;;;;;15.70;4.85;;;;;;;;;;10510658;28;20036;-75
2023/03/06 08:31:11;;;;;;;23.92;7.10;;;;;;;;;;10516372;28;20482;-74
2023/03/06 08:36:15;;;;;;;15.75;5.10;;;;;;;;;;10511137;28;20159;-74
2023/03/06 08:41:19;;;;;;;19.52;7.00;;;;;;;;;;10518290;28;20090;-75
2023/03/06 08:46:29;;;;;;;18.40;6.57;;;;;;;;;;10512683;28;20086;-74
2023/03/06 08:51:32;;;;;;;14.00;5.63;;;;;;;;;;10512662;28;20520;-76
2023/03/06 08:56:35;;;;;;;17.08;5.22;;;;;;;;;;10507381;28;20106;-74
2023/03/06 09:01:39;;;;;;;16.33;6.38;;;;;;;;;;10498795;28;20048;-75
2023/03/06 09:06:44;;;;;;;12.75;4.13;;;;;;;;;;10504347;28;20081;-73
2023/03/06 09:11:47;;;;;;;21.02;7.60;;;;;;;;;;10520437;28;20068;-75
2023/03/06 09:16:51;;;;;;;17.75;6.57;;;;;;;;;;10499729;28;20232;-74
2023/03/06 09:21:56;;;;;;;23.67;7.53;;;;;;;;;;10502231;28;20052;-75
2023/03/06 09:27:03;;;;;;;21.65;7.47;;;;;;;;;;10496680;28;20151;-76
2023/03/06 09:32:08;;;;;;;24.30;8.68;;;;;;;;;;10513218;28;20489;-75
2023/03/06 09:37:14;;;;;;;18.48;7.10;;;;;;;;;;10501520;28;20040;-76
2023/03/06 09:42:22;;;;;;;20.00;6.75;;;;;;;;;;10513232;28;20040;-76
2023/03/06 09:47:35;;;;;;;21.98;7.45;;;;;;;;;;10519711;28;20092;-76
2023/03/06 09:52:42;;;;;;;15.43;5.53;;;;;;;;;;10511061;28;20456;-76
2023/03/06 09:57:49;;;;;;;20.92;7.25;;;;;;;;;;10508754;28;20485;-75
2023/03/06 10:03:05;;;;;;;22.40;7.85;;;;;;;;;;10518888;28;20167;-75
2023/03/06 10:08:17;;;;;;;20.92;6.95;;;;;;;;;;10502060;28;20101;-73
2023/03/06 10:13:24;;;;;;;20.15;7.60;;;;;;;;;;10511124;28;20033;-73
2023/03/06 10:18:37;;;;;;;19.73;7.07;;;;;;;;;;10515874;28;20052;-75
2023/03/06 10:23:42;;;;;;;20.75;7.63;;;;;;;;;;10490316;28;20041;-76
2023/03/06 10:28:49;;;;;;;22.33;7.57;;;;;;;;;;10510364;28;20040;-76
2023/03/06 10:33:57;;;;;;;18.42;6.95;;;;;;;;;;10508236;28;20153;-74
2023/03/06 10:39:00;;;;;;;18.70;7.45;;;;;;;;;;10521717;28;20064;-74
2023/03/06 10:44:25;;;;;;;16.58;6.00;;;;;;;;;;10516410;28;20035;-74
2023/03/06 10:49:31;;;;;;;20.98;7.10;;;;;;;;;;10524358;28;20052;-74
2023/03/06 10:54:35;;;;;;;22.80;8.35;;;;;;;;;;10521469;28;20122;-74
2023/03/06 10:59:38;;;;;;;;;;;;;;;;;;10514412;28;20040;-75
2023/03/06 11:04:45;;;;;;;19.63;7.90;;;;;;;;;;10528371;28;20370;-75
2023/03/06 11:09:59;;;;;;;21.67;7.20;;;;;;;;;;10510335;28;20051;-74
2023/03/06 11:15:23;;;;;;;16.70;6.63;;;;;;;;;;10515100;28;20135;-74
2023/03/06 11:20:29;;;;;;;22.33;7.05;;;;;;;;;;10508691;28;20055;-75
2023/03/06 11:25:55;;;;;;;19.45;7.22;;;;;;;;;;10508649;28;20052;-75
2023/03/06 11:31:01;;;;;;;29.27;8.48;;;;;;;;;;10516281;28;20040;-76
2023/03/06 11:36:11;;;;;;;19.63;7.50;;;;;;;;;;10519440;28;20043;-75
2023/03/06 11:41:18;;;;;;;24.35;7.93;;;;;;;;;;10520263;28;20040;-75
2023/03/06 11:46:34;;;;;;;17.67;6.68;;;;;;;;;;10529804;28;20043;-76
2023/03/06 11:51:41;;;;;;;22.48;8.00;;;;;;;;;;10515562;28;20041;-74
2023/03/06 11:56:49;;;;;;;18.80;7.05;;;;;;;;;;10521405;28;20132;-76
2023/03/06 12:01:59;;;;;;;18.63;5.88;;;;;;;;;;10509733;28;20139;-74
2023/03/06 12:07:11;;;;;;;17.90;6.35;;;;;;;;;;10519367;28;20143;-75
2023/03/06 12:12:25;;;;;;;20.48;7.47;;;;;;;;;;10519477;28;20427;-74
2023/03/06 12:17:35;;;;;;;20.47;6.43;;;;;;;;;;10522772;28;20036;-75
2023/03/06 12:22:49;;;;;;;21.95;7.22;;;;;;;;;;10512233;28;20290;-75
2023/03/06 12:28:24;;;;;;;17.52;5.93;;;;;;;;;;10517007;28;20150;-77
2023/03/06 12:33:39;;;;;;;16.98;6.72;;;;;;;;;;10516055;28;20097;-75
2023/03/06 12:39:00;;;;;;;21.60;7.07;;;;;;;;;;10515568;28;20089;-75
2023/03/06 12:44:16;;;;;;;16.10;6.15;;;;;;;;;;10512285;28;20132;-75
2023/03/06 12:49:23;;;;;;;13.60;4.68;;;;;;;;;;10547375;27;20392;-76
2023/03/06 12:54:37;;;;;;;15.93;5.15;;;;;;;;;;10552947;27;20062;-76
2023/03/06 12:59:43;;;;;;;21.83;7.35;;;;;;;;;;10549570;27;20047;-76
2023/03/06 13:04:56;;;;;;;14.93;5.97;;;;;;;;;;10547383;27;20457;-76
2023/03/06 13:10:05;;;;;;;13.98;5.85;;;;;;;;;;10542907;28;20502;-75
2023/03/06 13:15:27;;;;;;;19.90;5.35;;;;;;;;;;10552204;27;20043;-75
2023/03/06 13:20:33;;;;;;;16.98;5.55;;;;;;;;;;10550466;28;20043;-75
2023/03/06 13:25:49;;;;;;;14.07;5.45;;;;;;;;;;10555521;27;20040;-76
2023/03/06 13:30:53;;;;;;;21.95;6.03;;;;;;;;;;10555064;27;20043;-77
2023/03/06 13:35:56;;;;;;;;;;;;;;;;;;10563457;27;20047;-77
2023/03/06 13:41:18;;;;;;;19.73;6.82;;;;;;;;;;10549465;27;19927;-78
2023/03/06 13:46:27;;;;;;;19.85;7.03;;;;;;;;;;10555989;28;20032;-77
2023/03/06 13:51:33;;;;;;;15.93;5.15;;;;;;;;;;10558149;27;20519;-77
2023/03/06 13:56:47;;;;;;;18.52;7.93;;;;;;;;;;10567402;27;20036;-76
2023/03/06 14:01:50;;;;;;;;;;;;;;;;;;10555525;28;20519;-77
2023/03/06 14:07:03;;;;;;;16.98;6.32;;;;;;;;;;10547641;27;20414;-77
2023/03/06 14:12:15;;;;;;;13.25;5.15;;;;;;;;;;10530478;28;20504;-74
2023/03/06 14:17:22;;;;;;;18.45;6.68;;;;;;;;;;10563114;27;20035;-74
2023/03/06 14:22:28;;;;;;;10.20;3.95;;;;;;;;;;10546773;28;20047;-74
2023/03/06 14:27:52;;;;;;;22.45;6.80;;;;;;;;;;10561723;28;20042;-75
2023/03/06 14:32:58;;;;;;;15.45;4.60;;;;;;;;;;10550568;28;20052;-75
2023/03/06 14:38:03;;;;;;;15.80;5.53;;;;;;;;;;10553862;28;20382;-74
2023/03/06 14:43:20;;;;;;;17.23;6.05;;;;;;;;;;10555878;28;20048;-74
2023/03/06 14:48:26;;;;;;;15.35;5.45;;;;;;;;;;10560158;28;20071;-75
2023/03/06 14:53:31;;;;;;;12.70;5.65;;;;;;;;;;10553481;28;20056;-74
2023/03/06 14:58:36;;;;;;;16.52;4.97;;;;;;;;;;10541694;28;20131;-76
2023/03/06 15:03:42;;;;;;;16.83;6.25;;;;;;;;;;10558557;28;20038;-73
2023/03/06 15:08:47;;;;;;;19.55;6.50;;;;;;;;;;10553607;28;20044;-74
2023/03/06 15:13:59;;;;;;;12.20;5.60;;;;;;;;;;10559041;28;20561;-74
2023/03/06 15:19:17;;;;;;;14.50;5.88;;;;;;;;;;10530571;28;20341;-74
2023/03/06 15:24:32;;;;;;;12.60;4.72;;;;;;;;;;10564227;28;20168;-74
2023/03/06 15:29:39;;;;;;;10.77;4.78;;;;;;;;;;10556122;27;20127;-76
2023/03/06 15:34:42;;;;;;;;;;;;;;;;;;10565301;27;20115;-76
2023/03/06 15:40:08;;;;;;;16.20;4.72;;;;;;;;;;10557526;27;19923;-75
2023/03/06 15:45:15;;;;;;;15.50;5.57;;;;;;;;;;10557158;28;20092;-74
2023/03/06 15:50:19;;;;;;;15.88;5.32;;;;;;;;;;10559700;27;20040;-74
2023/03/06 15:55:25;;;;;;;12.20;4.43;;;;;;;;;;10547921;28;20097;-75
2023/03/06 16:00:29;;;;;;;8.00;3.47;;;;;;;;;;10566630;27;20035;-75
2023/03/06 16:05:32;;;;;;;11.00;4.85;;;;;;;;;;10559319;27;20455;-76
2023/03/06 16:10:38;;;;;;;12.18;4.78;;;;;;;;;;10555624;28;20284;-75
2023/03/06 16:15:46;;;;;;;10.68;4.63;;;;;;;;;;10553417;27;20381;-74
2023/03/06 16:20:49;;;;;;;8.95;3.60;;;;;;;;;;10546767;28;20048;-76
2023/03/06 16:25:54;;;;;;;15.77;4.88;;;;;;;;;;10537453;27;20041;-75
2023/03/06 16:30:57;;;;;;;17.10;5.80;;;;;;;;;;10567995;27;20044;-76
2023/03/06 16:36:10;;;;;;;9.50;3.80;;;;;;;;;;10560568;27;20067;-76
2023/03/06 16:41:16;;;;;;;17.38;5.75;;;;;;;;;;10553047;28;20040;-76
2023/03/06 16:46:29;;;;;;;11.37;4.20;;;;;;;;;;10554748;27;20477;-75
2023/03/06 16:51:40;;;;;;;13.43;4.70;;;;;;;;;;10555587;27;20040;-76
2023/03/06 16:56:54;;;;;;;9.85;3.05;;;;;;;;;;10553291;28;20075;-77
2023/03/06 17:02:03;;;;;;;10.88;4.13;;;;;;;;;;10544421;28;20147;-76
2023/03/06 17:07:15;;;;;;;12.55;4.45;;;;;;;;;;10525170;28;20071;-76
2023/03/06 17:12:22;;;;;;;12.68;4.07;;;;;;;;;;10559222;27;20043;-75
2023/03/06 17:17:25;;;;;;;11.15;4.15;;;;;;;;;;10554444;27;20039;-76
2023/03/06 17:22:28;;;;;;;10.05;2.83;;;;;;;;;;10550691;27;20616;-76
2023/03/06 17:27:34;;;;;;;10.13;2.67;;;;;;;;;;10554501;27;20573;-77
2023/03/06 17:32:39;;;;;;;4.03;2.33;;;;;;;;;;10532310;28;20554;-76
2023/03/06 17:37:42;;;;;;;11.68;4.32;;;;;;;;;;10556046;27;20051;-76
2023/03/06 17:42:46;;;;;;;14.70;4.67;;;;;;;;;;10544007;28;20047;-76
2023/03/06 17:47:52;;;;;;;10.32;3.50;;;;;;;;;;10554962;28;20066;-77
2023/03/06 17:52:55;;;;;;;11.55;3.80;;;;;;;;;;10558134;27;20058;-77
2023/03/06 17:57:59;;;;;;;6.40;2.23;;;;;;;;;;10539595;27;20117;-76
2023/03/06 18:03:02;;;;;;;15.65;4.13;;;;;;;;;;10558167;28;20122;-76
2023/03/06 18:08:07;;;;;;;8.95;3.92;;;;;;;;;;10536348;28;20567;-76
2023/03/06 18:13:11;;;;;;;14.10;4.15;;;;;;;;;;10558341;28;20218;-76
2023/03/06 18:18:15;;;;;;;15.95;5.43;;;;;;;;;;10555518;28;20120;-77
2023/03/06 18:23:19;;;;;;;7.90;2.78;;;;;;;;;;10558996;28;20073;-76
2023/03/06 18:28:24;;;;;;;12.68;4.03;;;;;;;;;;10547994;28;20080;-76
2023/03/06 18:33:27;;;;;;;12.35;4.18;;;;;;;;;;10546452;28;20068;-76
2023/03/06 18:38:29;;;;;;;8.18;3.45;;;;;;;;;;10541867;28;20044;-76
2023/03/06 18:43:34;;;;;;;10.07;4.28;;;;;;;;;;10543749;28;20378;-77
2023/03/06 18:48:37;;;;;;;;;;;;;;;;;;10552779;28;20040;-77
2023/03/06 18:53:40;;;;;;;14.85;6.30;;;;;;;;;;10550062;28;19931;-76
2023/03/06 18:58:45;;;;;;;14.30;4.45;;;;;;;;;;10553142;28;20046;-78
2023/03/06 19:03:48;;;;;;;6.50;2.60;;;;;;;;;;10549387;28;20040;-78
2023/03/06 19:09:01;;;;;;;7.82;2.75;;;;;;;;;;10549787;27;20476;-77
2023/03/06 19:14:05;;;;;;;9.33;4.10;;;;;;;;;;10552873;27;20054;-78
2023/03/06 19:19:08;;;;;;;11.50;4.32;;;;;;;;;;10554563;28;20546;-77
2023/03/06 19:24:12;;;;;;;12.45;3.92;;;;;;;;;;10549124;27;20104;-77
2023/03/06 19:29:17;;;;;;;11.93;3.00;;;;;;;;;;10547207;28;20050;-77
2023/03/06 19:34:20;;;;;;;11.45;4.20;;;;;;;;;;10553198;27;20445;-77
2023/03/06 19:39:24;;;;;;;7.40;3.13;;;;;;;;;;10556891;27;20032;-76
2023/03/06 19:44:28;;;;;;;13.45;4.72;;;;;;;;;;10556081;27;20480;-77
2023/03/06 19:49:31;;;;;;;12.55;4.47;;;;;;;;;;10549774;28;20482;-77
2023/03/06 19:54:34;;;;;;;10.45;3.60;;;;;;;;;;10554249;27;20059;-77
2023/03/06 19:59:38;;;;;;;4.70;2.93;;;;;;;;;;10558693;28;20508;-77
2023/03/06 20:04:41;;;;;;;16.83;6.97;;;;;;;;;;10557429;27;20046;-76
2023/03/06 20:09:46;;;;;;;14.82;4.97;;;;;;;;;;10548498;28;20036;-74
2023/03/06 20:14:50;;;;;;;10.70;4.45;;;;;;;;;;10535168;28;20035;-76
2023/03/06 20:19:53;;;;;;;15.27;5.30;;;;;;;;;;10548540;28;20050;-76
2023/03/06 20:24:56;;;;;;;13.38;4.75;;;;;;;;;;10560142;27;20059;-77
2023/03/06 20:30:00;;;;;;;8.67;2.83;;;;;;;;;;10550479;28;20826;-75
2023/03/06 20:35:03;;;;;;;15.23;6.40;;;;;;;;;;10554500;27;20510;-76
2023/03/06 20:40:08;;;;;;;12.85;4.57;;;;;;;;;;10536165;27;20040;-77
2023/03/06 20:45:14;;;;;;;13.07;4.70;;;;;;;;;;10550283;28;20038;-74
2023/03/06 20:50:17;;;;;;;21.37;6.13;;;;;;;;;;10558062;28;20043;-75
2023/03/06 20:55:27;;;;;;;13.10;5.10;;;;;;;;;;10556555;28;20138;-75
2023/03/06 21:00:31;;;;;;;13.88;5.40;;;;;;;;;;10548714;27;20040;-75
2023/03/06 21:05:42;;;;;;;8.65;3.13;;;;;;;;;;10543609;28;20412;-77
2023/03/06 21:10:45;;;;;;;18.98;5.30;;;;;;;;;;10546406;28;20453;-75
2023/03/06 21:15:49;;;;;;;14.85;4.97;;;;;;;;;;10539790;28;20043;-77
2023/03/06 21:20:52;;;;;;;13.60;5.63;;;;;;;;;;10539055;28;20032;-77
2023/03/06 21:25:54;;;;;;;12.35;4.15;;;;;;;;;;10552324;28;20028;-78
2023/03/06 21:31:06;;;;;;;13.10;5.40;;;;;;;;;;10544154;28;20032;-78
2023/03/06 21:36:09;;;;;;;15.32;5.95;;;;;;;;;;10534288;27;20040;-76
2023/03/06 21:41:24;;;;;;;13.02;4.88;;;;;;;;;;10549363;27;20043;-76
2023/03/06 21:46:28;;;;;;;8.13;4.10;;;;;;;;;;10558003;27;20038;-76
2023/03/06 21:51:30;;;;;;;18.92;5.50;;;;;;;;;;10543324;28;20385;-77
2023/03/06 21:56:35;;;;;;;10.30;4.20;;;;;;;;;;10549862;28;20452;-76
2023/03/06 22:01:41;;;;;;;16.63;6.45;;;;;;;;;;10549289;28;20071;-77
2023/03/06 22:06:43;;;;;;;10.13;3.70;;;;;;;;;;10548887;28;20028;-77
2023/03/06 22:11:46;;;;;;;15.40;4.95;;;;;;;;;;10551265;28;20044;-76
2023/03/06 22:16:56;;;;;;;16.63;5.72;;;;;;;;;;10546561;28;20040;-77
2023/03/06 22:22:00;;;;;;;13.68;4.07;;;;;;;;;;10543287;28;20159;-77
2023/03/06 22:27:03;;;;;;;16.93;6.33;;;;;;;;;;10541319;28;20455;-78
2023/03/06 22:32:08;;;;;;;5.88;2.50;;;;;;;;;;10544822;28;20066;-76
2023/03/06 22:37:11;;;;;;;19.15;6.55;;;;;;;;;;10531292;28;20074;-76
2023/03/06 22:42:13;;;;;;;18.40;6.50;;;;;;;;;;10545863;28;20044;-77
2023/03/06 22:47:18;;;;;;;15.67;6.13;;;;;;;;;;10551306;28;20044;-77
2023/03/06 22:52:21;;;;;;;;;;;;;;;;;;10559803;28;20040;-78
2023/03/06 22:57:24;;;;;;;13.85;5.10;;;;;;;;;;10542881;28;19931;-76
2023/03/06 23:02:33;;;;;;;14.40;6.20;;;;;;;;;;10545131;28;20087;-77
2023/03/06 23:07:36;;;;;;;17.87;6.53;;;;;;;;;;10527920;28;20126;-76
2023/03/06 23:12:45;;;;;;;19.35;6.65;;;;;;;;;;10538451;28;20047;-76
2023/03/06 23:17:51;;;;;;;12.47;5.03;;;;;;;;;;10537054;28;20040;-76
2023/03/06 23:22:54;;;;;;;3.08;1.67;;;;;;;;;;10540440;28;20047;-76
2023/03/06 23:27:58;;;;;;;15.07;5.47;;;;;;;;;;10543705;28;20043;-76
2023/03/06 23:33:02;;;;;;;7.15;3.38;;;;;;;;;;10523509;28;20111;-76
2023/03/06 23:38:13;;;;;;;14.00;5.15;;;;;;;;;;10550354;28;20036;-77
2023/03/06 23:43:18;;;;;;;8.70;1.30;;;;;;;;;;10555354;27;20499;-78
2023/03/06 23:48:22;;;;;;;20.73;6.65;;;;;;;;;;10548367;27;20031;-76
2023/03/06 23:53:25;;;;;;;20.35;5.95;;;;;;;;;;10549755;28;20044;-77
2023/03/06 23:58:31;;;;;;;13.80;5.33;;;;;;;;;;10561633;28;20036;-77
